Time;durP1;ratioP1;P1;durP2;ratioP2;P2;SDS_P1;SDS_P2;PMS_P1;PMS_P2;Temp;Humidity;BMP_temperature;BMP_pressure;BME280_temperature;BME280_humidity;BME280_pressure;Samples;Min_cycle;Max_cycle;Signal;HPM_P1;HPM_P2
2022/06/06 00:00:43;;;;;;;4.65;2.50;;;15.50;99.90;;;;;;4986994;28;20048;-40
2022/06/06 00:03:09;;;;;;;5.50;3.20;;;15.50;99.90;;;;;;4989963;28;20037;-47
2022/06/06 00:05:36;;;;;;;5.53;3.00;;;15.50;99.90;;;;;;4987256;28;20049;-43
2022/06/06 00:08:03;;;;;;;4.72;2.90;;;15.40;99.90;;;;;;4989502;28;20068;-46
2022/06/06 00:10:29;;;;;;;4.65;2.75;;;15.40;99.90;;;;;;4991468;28;20049;-40
2022/06/06 00:12:55;;;;;;;4.28;2.67;;;15.40;99.90;;;;;;4987906;28;20062;-45
2022/06/06 00:15:22;;;;;;;4.97;2.85;;;15.40;99.90;;;;;;4989519;28;20042;-43
2022/06/06 00:17:48;;;;;;;4.70;3.08;;;15.40;99.90;;;;;;4985652;28;20034;-42
2022/06/06 00:20:14;;;;;;;5.20;3.20;;;15.30;99.90;;;;;;4991218;28;20078;-44
2022/06/06 00:22:40;;;;;;;5.18;3.40;;;15.30;99.90;;;;;;4989246;28;20559;-43
2022/06/06 00:25:06;;;;;;;5.32;3.28;;;15.30;99.90;;;;;;4989095;28;20121;-44
2022/06/06 00:27:32;;;;;;;6.13;3.40;;;15.30;99.90;;;;;;4983508;28;20034;-42
2022/06/06 00:29:57;;;;;;;6.20;3.97;;;15.30;99.90;;;;;;4989605;28;20482;-42
2022/06/06 00:35:07;;;;;;;4.85;3.40;;;15.30;99.90;;;;;;4983548;28;20053;-42
2022/06/06 00:37:35;;;;;;;4.70;2.95;;;15.30;99.90;;;;;;4988926;28;20050;-41
2022/06/06 00:40:02;;;;;;;4.10;2.90;;;15.30;99.90;;;;;;4988068;28;20149;-43
2022/06/06 00:42:29;;;;;;;4.70;2.63;;;15.30;99.90;;;;;;4987864;28;20117;-44
2022/06/06 00:45:20;;;;;;;5.45;3.10;;;15.30;99.90;;;;;;4986488;28;20042;-47
2022/06/06 00:48:10;;;;;;;5.22;2.83;;;15.30;99.90;;;;;;4984780;28;20349;-43
2022/06/06 00:50:59;;;;;;;5.32;3.03;;;15.30;99.90;;;;;;4986973;28;20042;-42
2022/06/06 00:53:39;;;;;;;5.22;3.67;;;15.30;99.90;;;;;;4982018;28;20054;-43
2022/06/06 00:56:29;;;;;;;6.22;4.03;;;15.30;99.90;;;;;;4988460;28;20431;-42
2022/06/06 00:59:01;;;;;;;8.23;5.15;;;15.30;99.90;;;;;;4975584;28;20050;-42
2022/06/06 01:01:28;;;;;;;9.25;6.07;;;15.30;99.90;;;;;;4986719;28;20118;-42
2022/06/06 01:04:00;;;;;;;7.60;5.15;;;15.40;99.90;;;;;;4985742;28;20050;-48
2022/06/06 01:06:30;;;;;;;8.17;5.30;;;15.40;99.90;;;;;;4987879;28;20051;-42
2022/06/06 01:08:58;;;;;;;6.70;4.75;;;15.40;99.90;;;;;;4988315;28;20294;-42
2022/06/06 01:11:24;;;;;;;8.35;5.63;;;15.50;99.90;;;;;;4984199;28;20085;-43
2022/06/06 01:13:51;;;;;;;8.93;6.20;;;15.50;99.90;;;;;;4990024;28;20488;-44
2022/06/06 01:16:53;;;;;;;11.75;7.53;;;15.40;99.90;;;;;;4992671;28;20038;-41
2022/06/06 01:19:24;;;;;;;16.58;9.77;;;15.40;99.90;;;;;;4991024;28;20042;-44
2022/06/06 01:22:20;;;;;;;16.00;10.80;;;15.40;99.90;;;;;;4985875;28;20053;-44
2022/06/06 01:25:03;;;;;;;21.23;11.48;;;15.30;99.90;;;;;;4990718;28;20305;-42
2022/06/06 01:27:47;;;;;;;17.92;11.32;;;15.20;99.90;;;;;;4992991;28;20042;-48
2022/06/06 01:30:19;;;;;;;15.82;9.82;;;15.20;99.90;;;;;;4991623;28;20046;-45
2022/06/06 01:32:53;;;;;;;14.73;9.38;;;15.10;99.90;;;;;;4991130;28;20135;-45
2022/06/06 01:35:34;;;;;;;14.60;9.27;;;15.00;99.90;;;;;;4990044;28;20121;-48
2022/06/06 01:38:00;;;;;;;15.35;9.15;;;15.00;99.90;;;;;;4977535;28;20169;-46
2022/06/06 01:40:36;;;;;;;15.60;9.25;;;14.90;99.90;;;;;;4983126;28;20094;-47
2022/06/06 01:43:16;;;;;;;13.95;9.32;;;14.80;99.90;;;;;;4986247;28;20435;-44
2022/06/06 01:45:57;;;;;;;18.10;10.15;;;14.80;99.90;;;;;;4990537;28;20030;-49
2022/06/06 01:48:27;;;;;;;16.25;9.85;;;14.80;99.90;;;;;;4984970;28;20035;-45
2022/06/06 01:50:53;;;;;;;15.73;10.13;;;14.80;99.90;;;;;;5007937;28;20087;-43
2022/06/06 01:53:22;;;;;;;15.68;9.32;;;14.80;99.90;;;;;;4992737;28;20077;-42
2022/06/06 01:55:50;;;;;;;16.80;9.68;;;14.80;99.90;;;;;;4990318;28;20042;-44
2022/06/06 01:58:25;;;;;;;16.38;9.45;;;14.70;99.90;;;;;;4992691;28;20057;-44
2022/06/06 02:00:51;;;;;;;14.95;9.98;;;14.80;99.90;;;;;;4993312;28;20523;-45
2022/06/06 02:03:17;;;;;;;14.50;8.93;;;14.70;99.90;;;;;;4992384;28;20100;-44
2022/06/06 02:05:43;;;;;;;14.05;7.93;;;14.70;99.90;;;;;;4991220;28;20435;-44
2022/06/06 02:08:09;;;;;;;13.00;8.05;;;14.70;99.90;;;;;;4991313;28;20038;-43
2022/06/06 02:10:36;;;;;;;12.02;7.60;;;14.60;99.90;;;;;;4996623;28;20069;-42
2022/06/06 02:13:01;;;;;;;15.23;8.77;;;14.60;99.90;;;;;;4992221;28;20459;-44
2022/06/06 02:15:28;;;;;;;21.10;11.15;;;14.60;99.90;;;;;;4993054;28;20125;-44
2022/06/06 02:17:55;;;;;;;20.52;10.88;;;14.50;99.90;;;;;;4990644;28;20046;-43
2022/06/06 02:20:24;;;;;;;23.73;12.23;;;14.50;99.90;;;;;;4992949;28;20046;-44
2022/06/06 02:22:50;;;;;;;25.67;12.95;;;14.50;99.90;;;;;;4992589;28;20553;-43
2022/06/06 02:25:17;;;;;;;24.77;11.70;;;14.40;99.90;;;;;;4991785;28;20046;-44
2022/06/06 02:27:43;;;;;;;25.23;13.05;;;14.40;99.90;;;;;;4993325;28;20480;-43
2022/06/06 02:30:13;;;;;;;22.42;11.93;;;14.30;99.90;;;;;;4994743;28;20048;-43
2022/06/06 02:32:40;;;;;;;30.13;13.52;;;14.30;99.90;;;;;;4989689;28;20049;-41
2022/06/06 02:35:08;;;;;;;30.23;13.98;;;14.30;99.90;;;;;;4989047;28;20510;-42
2022/06/06 02:37:33;;;;;;;31.27;14.48;;;14.20;99.90;;;;;;4990201;28;20579;-43
2022/06/06 02:39:59;;;;;;;30.67;14.95;;;14.20;99.90;;;;;;4989922;28;20038;-40
2022/06/06 02:42:25;;;;;;;31.30;14.50;;;14.20;99.90;;;;;;4990769;28;20487;-43
2022/06/06 02:44:51;;;;;;;26.52;12.70;;;14.20;99.90;;;;;;4993191;28;20159;-44
2022/06/06 02:47:16;;;;;;;25.15;12.35;;;14.10;99.90;;;;;;4992277;28;20038;-40
2022/06/06 02:49:42;;;;;;;25.92;12.10;;;14.20;99.90;;;;;;4988837;28;20555;-41
2022/06/06 02:52:08;;;;;;;23.98;9.63;;;14.20;99.90;;;;;;4988937;28;20038;-41
2022/06/06 02:54:33;;;;;;;18.55;9.00;;;14.20;99.90;;;;;;4991339;28;20119;-43
2022/06/06 02:57:01;;;;;;;17.58;8.55;;;14.10;99.90;;;;;;4989680;28;20050;-41
2022/06/06 02:59:28;;;;;;;14.38;6.88;;;14.10;99.90;;;;;;4988074;28;20136;-42
2022/06/06 03:01:54;;;;;;;16.15;7.07;;;14.10;99.90;;;;;;4988657;28;20087;-43
2022/06/06 03:04:20;;;;;;;14.20;6.03;;;14.10;99.90;;;;;;4997660;28;20042;-41
2022/06/06 03:06:48;;;;;;;13.73;6.10;;;14.10;99.90;;;;;;4993693;28;20033;-43
2022/06/06 03:09:29;;;;;;;17.33;7.18;;;14.00;99.90;;;;;;4990557;28;20093;-42
2022/06/06 03:12:03;;;;;;;15.77;6.10;;;14.00;99.90;;;;;;4987459;28;20073;-42
2022/06/06 03:14:47;;;;;;;15.98;7.30;;;14.00;99.90;;;;;;4992598;28;20403;-42
2022/06/06 03:21:10;;;;;;;13.13;6.00;;;14.00;99.90;;;;;;4992540;28;20046;-45
2022/06/06 03:23:41;;;;;;;11.60;5.20;;;13.90;99.90;;;;;;4986648;28;20034;-47
2022/06/06 03:26:37;;;;;;;13.55;5.05;;;13.90;99.90;;;;;;4986747;28;20035;-46
2022/06/06 03:29:44;;;;;;;13.15;5.50;;;13.90;99.90;;;;;;4990187;28;20181;-43
2022/06/06 03:32:37;;;;;;;11.07;4.78;;;13.80;99.90;;;;;;4993122;28;20046;-40
2022/06/06 03:35:58;;;;;;;10.63;4.40;;;13.80;99.90;;;;;;4991251;28;20069;-42
2022/06/06 03:38:41;;;;;;;11.40;5.40;;;13.70;99.90;;;;;;4977722;28;20046;-42
2022/06/06 03:41:09;;;;;;;10.48;4.25;;;13.70;99.90;;;;;;4985792;28;20503;-45
2022/06/06 03:44:10;;;;;;;12.30;6.15;;;13.70;99.90;;;;;;4985627;28;20528;-41
2022/06/06 03:46:48;;;;;;;18.10;6.10;;;13.70;99.90;;;;;;4975192;28;20050;-43
2022/06/06 03:49:23;;;;;;;13.80;5.93;;;13.80;99.90;;;;;;4989811;28;20042;-43
2022/06/06 03:52:13;;;;;;;15.75;6.70;;;13.80;99.90;;;;;;4989239;28;20042;-46
2022/06/06 03:54:57;;;;;;;16.73;7.30;;;13.80;99.90;;;;;;4989090;28;20081;-41
2022/06/06 03:57:25;;;;;;;15.15;6.22;;;13.80;99.90;;;;;;4987527;28;20162;-43
2022/06/06 03:59:58;;;;;;;16.40;6.65;;;13.90;99.90;;;;;;4988996;28;20061;-43
2022/06/06 04:02:31;;;;;;;;;;;13.90;99.90;;;;;;4990515;28;20072;-45
2022/06/06 04:05:00;;;;;;;17.98;6.63;;;13.90;99.90;;;;;;4988395;28;19933;-42
2022/06/06 04:07:26;;;;;;;14.77;5.95;;;13.90;99.90;;;;;;4990547;28;20177;-42
2022/06/06 04:09:52;;;;;;;13.18;6.30;;;13.90;99.90;;;;;;4988979;28;20100;-42
2022/06/06 04:12:44;;;;;;;14.15;6.55;;;13.90;99.90;;;;;;4987134;28;20062;-42
2022/06/06 04:15:37;;;;;;;15.88;7.05;;;13.90;99.90;;;;;;4991692;28;20556;-43
2022/06/06 04:18:26;;;;;;;15.70;6.50;;;13.90;99.90;;;;;;4985595;28;20472;-42
2022/06/06 04:21:28;;;;;;;14.13;7.38;;;13.90;99.90;;;;;;4987121;28;20038;-43
2022/06/06 04:24:04;;;;;;;16.07;6.93;;;13.90;99.90;;;;;;4989938;28;20521;-43
2022/06/06 04:26:32;;;;;;;14.38;6.57;;;14.00;99.90;;;;;;4990366;28;20289;-40
2022/06/06 04:28:58;;;;;;;12.68;6.00;;;13.90;99.90;;;;;;4985271;28;20634;-46
2022/06/06 04:31:42;;;;;;;12.63;5.65;;;14.00;99.90;;;;;;4989364;28;20034;-47
2022/06/06 04:34:27;;;;;;;10.75;5.60;;;14.00;99.90;;;;;;4988066;28;20534;-43
2022/06/06 04:37:34;;;;;;;11.68;6.25;;;14.00;99.90;;;;;;4987462;28;20050;-44
2022/06/06 04:40:12;;;;;;;12.23;6.35;;;14.00;99.90;;;;;;4987818;28;20508;-42
2022/06/06 04:42:44;;;;;;;10.95;5.53;;;14.00;99.90;;;;;;4986301;28;20045;-43
2022/06/06 04:45:31;;;;;;;13.52;5.82;;;14.00;99.90;;;;;;5005591;28;20125;-41
2022/06/06 04:47:58;;;;;;;13.73;6.40;;;14.10;99.90;;;;;;4990033;28;20141;-43
2022/06/06 04:50:24;;;;;;;12.52;5.93;;;14.10;99.90;;;;;;4986716;28;20050;-45
2022/06/06 04:53:00;;;;;;;15.18;8.13;;;14.10;99.90;;;;;;4990030;28;20076;-40
2022/06/06 04:55:29;;;;;;;15.32;6.88;;;14.10;99.90;;;;;;4986364;28;20105;-40
2022/06/06 04:57:58;;;;;;;17.02;6.80;;;14.10;99.90;;;;;;4992870;28;20038;-40
2022/06/06 05:00:27;;;;;;;12.60;6.45;;;14.10;99.90;;;;;;4987796;28;20427;-42
2022/06/06 05:02:53;;;;;;;15.60;7.28;;;14.00;99.90;;;;;;4987253;28;20038;-41
2022/06/06 05:05:20;;;;;;;12.82;6.18;;;14.10;99.90;;;;;;4993721;28;20034;-46
2022/06/06 05:08:14;;;;;;;11.02;5.82;;;14.00;99.90;;;;;;4988187;28;20093;-41
2022/06/06 05:10:48;;;;;;;12.65;5.75;;;14.10;99.90;;;;;;4987839;28;20046;-42
2022/06/06 05:13:33;;;;;;;13.45;6.18;;;14.10;99.90;;;;;;4989199;28;20054;-41
2022/06/06 05:16:14;;;;;;;13.05;5.85;;;14.20;99.90;;;;;;4989126;28;20180;-45
2022/06/06 05:18:49;;;;;;;12.93;6.50;;;14.20;99.90;;;;;;4988359;28;20073;-41
2022/06/06 05:21:33;;;;;;;15.57;6.85;;;14.20;99.90;;;;;;4990391;28;20077;-42
2022/06/06 05:24:20;;;;;;;14.23;6.80;;;14.10;99.90;;;;;;4985692;28;20100;-43
2022/06/06 05:26:48;;;;;;;13.95;6.10;;;14.20;99.90;;;;;;4986876;28;20049;-43
2022/06/06 05:29:44;;;;;;;17.00;7.18;;;14.10;99.90;;;;;;4988775;28;20113;-42
2022/06/06 05:32:33;;;;;;;25.58;6.82;;;14.20;99.90;;;;;;4987563;28;20384;-41
2022/06/06 05:35:14;;;;;;;13.52;6.78;;;14.20;99.90;;;;;;4987088;28;20125;-40
2022/06/06 05:37:57;;;;;;;14.88;6.90;;;14.30;99.90;;;;;;4991010;28;20500;-43
2022/06/06 05:40:49;;;;;;;16.20;6.10;;;14.30;99.90;;;;;;4987043;28;20050;-40
2022/06/06 05:43:59;;;;;;;13.20;6.03;;;14.30;99.90;;;;;;4986776;28;20042;-41
2022/06/06 05:46:50;;;;;;;14.65;6.07;;;14.40;99.90;;;;;;4951797;28;20149;-41
2022/06/06 05:49:46;;;;;;;14.77;6.07;;;14.40;99.90;;;;;;4985566;28;20049;-44
2022/06/06 05:52:30;;;;;;;14.05;6.88;;;14.50;99.90;;;;;;4982127;28;20034;-41
2022/06/06 05:55:07;;;;;;;13.43;6.20;;;14.60;99.90;;;;;;4984804;28;20046;-42
2022/06/06 05:57:36;;;;;;;13.65;5.32;;;14.60;99.90;;;;;;4985356;28;20078;-41
2022/06/06 06:00:25;;;;;;;12.70;6.10;;;14.70;99.90;;;;;;4986882;28;20038;-39
2022/06/06 06:03:02;;;;;;;14.55;5.50;;;14.70;99.90;;;;;;4988717;28;20117;-43
2022/06/06 06:05:54;;;;;;;13.38;5.75;;;14.80;99.90;;;;;;4985748;28;20173;-43
2022/06/06 06:08:50;;;;;;;14.98;6.88;;;14.80;99.90;;;;;;4987738;28;20036;-42
2022/06/06 06:11:26;;;;;;;12.15;4.65;;;14.90;99.90;;;;;;4985476;28;20051;-39
2022/06/06 06:14:15;;;;;;;13.93;5.55;;;15.10;99.90;;;;;;4984936;28;20062;-41
2022/06/06 06:16:45;;;;;;;13.68;5.32;;;15.20;99.90;;;;;;4984457;28;20075;-40
2022/06/06 06:19:15;;;;;;;11.63;5.25;;;15.30;99.90;;;;;;4986490;28;20049;-44
2022/06/06 06:21:46;;;;;;;11.60;5.53;;;15.30;99.90;;;;;;4984100;28;20050;-43
2022/06/06 06:24:18;;;;;;;12.27;5.00;;;15.50;99.90;;;;;;4990775;28;20125;-41
2022/06/06 06:26:45;;;;;;;11.43;4.80;;;15.60;99.90;;;;;;4988421;28;20042;-40
2022/06/06 06:29:11;;;;;;;10.52;5.22;;;15.60;99.90;;;;;;4985400;28;20399;-42
2022/06/06 06:31:58;;;;;;;11.60;5.60;;;15.60;99.90;;;;;;4984048;28;20043;-42
2022/06/06 06:35:01;;;;;;;11.25;5.13;;;15.70;99.90;;;;;;4986870;28;20631;-40
2022/06/06 06:37:32;;;;;;;;;;;15.60;99.90;;;;;;4989524;28;20519;-40
2022/06/06 06:40:23;;;;;;;13.55;4.88;;;15.50;99.90;;;;;;4984278;28;20356;-43
2022/06/06 06:43:24;;;;;;;10.40;5.38;;;15.40;99.90;;;;;;4991992;28;20065;-42
2022/06/06 06:45:56;;;;;;;10.52;5.20;;;15.40;99.90;;;;;;4989758;28;20117;-43
2022/06/06 06:48:29;;;;;;;10.85;4.80;;;15.40;99.90;;;;;;4994041;28;20118;-44
2022/06/06 06:51:07;;;;;;;12.27;5.50;;;15.50;99.90;;;;;;4990314;28;20038;-43
2022/06/06 06:53:46;;;;;;;11.45;5.47;;;15.50;99.90;;;;;;4984429;28;20073;-42
2022/06/06 06:56:22;;;;;;;10.98;5.47;;;15.50;99.90;;;;;;4992869;28;20049;-43
2022/06/06 06:58:54;;;;;;;10.30;5.43;;;15.60;99.90;;;;;;4990128;28;20046;-43
2022/06/06 07:08:32;;;;;;;14.57;6.18;;;15.60;99.90;;;;;;4995803;28;20042;-42
2022/06/06 07:10:53;;;;;;;13.90;7.00;;;15.60;99.90;;;;;;4985463;28;20057;-41
2022/06/06 07:13:40;;;;;;;18.10;7.88;;;15.70;99.90;;;;;;4990456;28;20050;-43
2022/06/06 07:16:26;;;;;;;14.82;6.82;;;15.90;99.90;;;;;;4988638;28;20143;-41
2022/06/06 07:19:15;;;;;;;13.63;6.70;;;16.20;99.90;;;;;;4990827;28;20042;-41
2022/06/06 07:21:43;;;;;;;13.27;6.88;;;16.20;99.90;;;;;;4987650;28;20081;-42
2022/06/06 07:24:16;;;;;;;14.02;6.68;;;16.20;99.90;;;;;;4991310;28;20044;-42
2022/06/06 07:26:44;;;;;;;13.00;6.95;;;16.30;99.90;;;;;;4988483;28;20042;-41
2022/06/06 07:29:12;;;;;;;10.23;4.13;;;16.20;99.90;;;;;;4992016;28;20042;-41
2022/06/06 07:32:08;;;;;;;9.75;4.53;;;16.10;99.90;;;;;;4988987;28;20368;-40
2022/06/06 07:34:49;;;;;;;10.73;5.10;;;16.10;99.90;;;;;;4984165;28;20345;-45
2022/06/06 07:37:19;;;;;;;9.40;5.43;;;16.00;99.90;;;;;;4990482;28;20137;-41
2022/06/06 07:40:05;;;;;;;11.02;4.85;;;15.90;99.90;;;;;;4992369;28;20043;-43
2022/06/06 07:42:51;;;;;;;10.50;5.35;;;16.00;99.90;;;;;;4990214;28;20039;-43
2022/06/06 07:45:52;;;;;;;6.28;2.83;;;16.20;99.90;;;;;;4988751;28;20101;-43
2022/06/06 07:48:54;;;;;;;5.57;2.83;;;16.50;99.90;;;;;;4989533;28;20051;-44
2022/06/06 07:51:58;;;;;;;7.82;2.60;;;16.70;99.90;;;;;;5004407;28;20046;-41
2022/06/06 07:54:52;;;;;;;3.95;1.30;;;16.90;99.90;;;;;;5001077;28;20055;-45
2022/06/06 07:57:24;;;;;;;3.95;1.45;;;17.10;99.90;;;;;;4987702;28;20037;-41
2022/06/06 07:59:54;;;;;;;3.27;1.00;;;17.20;99.90;;;;;;4991231;28;20092;-43
2022/06/06 08:02:48;;;;;;;3.50;1.63;;;17.30;99.90;;;;;;4986969;28;20046;-42
2022/06/06 08:05:35;;;;;;;6.15;1.90;;;17.40;99.90;;;;;;4989679;28;20042;-40
2022/06/06 08:08:23;;;;;;;5.15;1.60;;;17.30;99.90;;;;;;4984164;28;20046;-41
2022/06/06 08:10:49;;;;;;;11.20;1.45;;;17.10;99.90;;;;;;4987614;28;20034;-40
2022/06/06 08:13:59;;;;;;;4.53;1.60;;;17.10;99.90;;;;;;4987131;28;20054;-44
2022/06/06 08:16:41;;;;;;;4.75;1.55;;;16.80;99.90;;;;;;4905697;29;20212;-42
2022/06/06 08:19:46;;;;;;;6.05;1.25;;;16.70;99.90;;;;;;4908585;29;20130;-42
2022/06/06 08:22:12;;;;;;;4.07;1.45;;;16.80;99.90;;;;;;4971888;28;20057;-43
2022/06/06 08:24:41;;;;;;;3.50;1.10;;;17.00;99.90;;;;;;4988410;28;20038;-43
2022/06/06 08:27:11;;;;;;;4.10;1.52;;;17.10;99.90;;;;;;4989423;28;20129;-42
2022/06/06 08:29:39;;;;;;;2.63;0.98;;;17.30;99.90;;;;;;4988707;28;20052;-44
2022/06/06 08:32:06;;;;;;;6.13;1.30;;;17.30;99.50;;;;;;4988111;28;20046;-43
2022/06/06 08:34:33;;;;;;;3.50;0.88;;;17.10;99.90;;;;;;4989889;28;20042;-41
2022/06/06 08:37:26;;;;;;;3.33;1.02;;;17.00;99.90;;;;;;4991412;28;20582;-42
2022/06/06 08:39:59;;;;;;;3.53;1.23;;;16.90;99.90;;;;;;4986874;28;20120;-42
2022/06/06 08:42:49;;;;;;;2.80;0.85;;;16.80;99.90;;;;;;4988951;28;20038;-43
2022/06/06 08:45:15;;;;;;;6.25;1.50;;;16.70;99.90;;;;;;4988965;28;20038;-43
2022/06/06 08:47:41;;;;;;;3.75;1.13;;;16.70;99.90;;;;;;4987620;28;20517;-42
2022/06/06 08:50:45;;;;;;;3.25;1.10;;;16.70;99.90;;;;;;4987393;28;20046;-42
2022/06/06 08:53:36;;;;;;;3.95;1.13;;;16.70;99.90;;;;;;4989981;28;20124;-42
2022/06/06 08:56:21;;;;;;;4.47;1.27;;;16.60;99.90;;;;;;4989211;28;20050;-41
2022/06/06 08:59:22;;;;;;;3.90;1.42;;;16.70;99.90;;;;;;4987794;28;20085;-43
2022/06/06 09:02:24;;;;;;;3.83;1.63;;;16.80;99.90;;;;;;4989885;28;20050;-43
2022/06/06 09:05:35;;;;;;;5.30;2.42;;;16.80;99.90;;;;;;4984215;28;20480;-44
2022/06/06 09:08:28;;;;;;;5.63;2.85;;;16.70;99.90;;;;;;4982506;28;20038;-43
2022/06/06 09:11:06;;;;;;;5.85;2.20;;;16.60;99.90;;;;;;4983119;28;20129;-42
2022/06/06 09:13:59;;;;;;;4.18;2.00;;;16.60;99.90;;;;;;4986559;28;20051;-41
2022/06/06 09:17:02;;;;;;;5.50;2.25;;;16.70;99.90;;;;;;4980931;28;20502;-42
2022/06/06 09:19:41;;;;;;;9.00;2.78;;;16.50;99.90;;;;;;4985092;28;20076;-43
2022/06/06 09:22:29;;;;;;;6.95;2.00;;;16.30;99.90;;;;;;4983014;28;20702;-41
2022/06/06 09:25:05;;;;;;;5.15;2.22;;;16.10;99.90;;;;;;4981368;28;20134;-46
2022/06/06 09:28:02;;;;;;;5.90;2.53;;;16.00;99.90;;;;;;4985677;28;20361;-42
2022/06/06 09:30:42;;;;;;;3.10;1.50;;;16.20;99.90;;;;;;4984818;28;20050;-42
2022/06/06 09:33:39;;;;;;;4.43;1.20;;;16.40;99.90;;;;;;4984980;28;20042;-42
2022/06/06 09:36:47;;;;;;;6.28;1.05;;;16.50;99.90;;;;;;4976110;28;20038;-42
2022/06/06 09:39:55;;;;;;;5.65;1.67;;;16.50;99.90;;;;;;4973779;28;20135;-45
2022/06/06 09:42:40;;;;;;;3.85;1.48;;;16.00;99.90;;;;;;4984470;28;20042;-46
2022/06/06 09:45:09;;;;;;;4.05;2.03;;;15.60;99.90;;;;;;4987522;28;20066;-45
2022/06/06 09:48:22;;;;;;;6.13;2.58;;;15.40;99.90;;;;;;4989070;28;20034;-45
2022/06/06 09:50:56;;;;;;;4.88;2.00;;;15.30;99.90;;;;;;4948114;28;20046;-43
2022/06/06 09:53:43;;;;;;;5.53;2.13;;;15.50;99.90;;;;;;4984684;28;20042;-41
2022/06/06 09:59:55;;;;;;;3.78;1.83;;;16.10;99.90;;;;;;4912046;29;20055;-47
2022/06/06 10:02:46;;;;;;;3.45;1.52;;;16.50;99.90;;;;;;4972793;28;20047;-44
2022/06/06 10:05:49;;;;;;;3.70;1.23;;;16.50;99.90;;;;;;4983579;28;20074;-44
2022/06/06 10:08:36;;;;;;;3.25;1.05;;;16.40;99.90;;;;;;4985595;28;20495;-45
2022/06/06 10:11:26;;;;;;;3.72;1.77;;;16.30;99.90;;;;;;4987926;28;20045;-45
2022/06/06 10:13:55;;;;;;;3.85;1.90;;;16.20;99.90;;;;;;4992678;28;20050;-46
2022/06/06 10:16:41;;;;;;;4.38;2.05;;;16.30;99.90;;;;;;4991012;28;20049;-44
2022/06/06 10:19:39;;;;;;;3.63;1.55;;;16.40;99.90;;;;;;4988435;28;20061;-42
2022/06/06 10:22:34;;;;;;;4.07;1.65;;;16.40;99.90;;;;;;4957017;28;20073;-41
2022/06/06 10:25:31;;;;;;;5.10;1.98;;;16.30;99.90;;;;;;4988088;28;21463;-46
2022/06/06 10:28:04;;;;;;;3.58;1.48;;;16.20;99.90;;;;;;4995288;28;20132;-42
2022/06/06 10:31:06;;;;;;;2.17;1.60;;;16.20;99.90;;;;;;4992992;28;20077;-44
2022/06/06 10:33:47;;;;;;;4.95;1.60;;;16.10;99.90;;;;;;4985779;28;20042;-44
2022/06/06 10:36:23;;;;;;;4.07;2.08;;;16.40;99.90;;;;;;4993041;28;20041;-42
2022/06/06 10:39:27;;;;;;;6.00;1.90;;;16.60;99.90;;;;;;4990093;28;20133;-46
2022/06/06 10:42:34;;;;;;;3.83;2.00;;;16.90;99.90;;;;;;4960279;28;20141;-43
2022/06/06 10:45:31;;;;;;;2.88;2.20;;;16.90;99.90;;;;;;4984877;28;20101;-44
2022/06/06 10:48:09;;;;;;;2.67;1.95;;;16.70;99.90;;;;;;4993103;28;20200;-47
2022/06/06 10:54:20;;;;;;;4.97;1.52;;;16.40;99.90;;;;;;4988410;28;20046;-43
2022/06/06 10:56:52;;;;;;;2.60;1.20;;;16.20;99.90;;;;;;4983331;28;20083;-43
2022/06/06 10:59:42;;;;;;;2.28;1.20;;;16.10;99.90;;;;;;4983138;28;20034;-40
2022/06/06 11:02:43;;;;;;;2.90;1.15;;;16.00;99.90;;;;;;4992652;28;20046;-43
2022/06/06 11:05:38;;;;;;;4.20;1.75;;;16.20;99.90;;;;;;4992608;28;20050;-44
2022/06/06 11:08:13;;;;;;;4.43;1.67;;;16.50;99.90;;;;;;4990754;28;20042;-43
2022/06/06 11:11:07;;;;;;;2.60;1.60;;;16.80;99.90;;;;;;4998015;28;20530;-42
2022/06/06 11:14:05;;;;;;;2.20;1.70;;;16.90;99.90;;;;;;4990044;28;20197;-42
2022/06/06 11:16:53;;;;;;;4.63;1.65;;;17.10;99.90;;;;;;4974513;28;20046;-43
2022/06/06 11:19:53;;;;;;;3.15;1.60;;;17.40;99.90;;;;;;4990523;28;20078;-47
2022/06/06 11:22:41;;;;;;;3.85;1.60;;;17.80;99.90;;;;;;4991117;28;20044;-43
2022/06/06 11:25:09;;;;;;;2.10;0.70;;;18.20;99.90;;;;;;4990605;28;20042;-41
2022/06/06 11:28:01;;;;;;;4.53;0.88;;;18.30;97.40;;;;;;4988774;28;20125;-44
2022/06/06 11:30:42;;;;;;;2.65;0.88;;;18.40;97.60;;;;;;4984637;28;20395;-40
2022/06/06 11:33:28;;;;;;;3.88;0.82;;;18.40;96.60;;;;;;4989860;28;20133;-43
2022/06/06 11:36:17;;;;;;;1.15;0.50;;;18.30;96.40;;;;;;4994851;28;20496;-45
2022/06/06 11:39:30;;;;;;;0.77;0.40;;;18.30;96.10;;;;;;4963452;28;20050;-45
2022/06/06 11:42:26;;;;;;;2.58;0.60;;;18.30;93.10;;;;;;4971719;28;20436;-45
2022/06/06 11:45:10;;;;;;;1.75;0.70;;;18.20;94.00;;;;;;4991073;28;20048;-44
2022/06/06 11:48:01;;;;;;;4.10;1.33;;;18.10;96.50;;;;;;4989596;28;20042;-44
2022/06/06 11:50:45;;;;;;;0.68;0.40;;;18.20;94.60;;;;;;4989959;28;20403;-42
2022/06/06 11:53:28;;;;;;;1.35;0.30;;;18.20;92.50;;;;;;4988965;28;20074;-44
2022/06/06 11:56:08;;;;;;;0.32;0.30;;;18.10;90.40;;;;;;4989731;28;20121;-43
2022/06/06 11:58:56;;;;;;;0.40;0.30;;;17.90;92.10;;;;;;4991237;28;20045;-44
2022/06/06 12:02:06;;;;;;;4.07;0.70;;;18.10;92.90;;;;;;4990177;28;20444;-46
2022/06/06 12:05:08;;;;;;;2.47;0.60;;;18.10;90.90;;;;;;4931789;29;20032;-43
2022/06/06 12:08:19;;;;;;;2.25;0.63;;;18.30;90.50;;;;;;4993334;28;20038;-42
2022/06/06 12:11:10;;;;;;;2.03;0.63;;;18.30;89.70;;;;;;4990384;28;20042;-41
2022/06/06 12:13:41;;;;;;;3.00;0.90;;;18.30;92.30;;;;;;4993641;28;20050;-42
2022/06/06 12:16:14;;;;;;;3.72;1.10;;;18.30;91.70;;;;;;4992455;28;20462;-44
2022/06/06 12:18:49;;;;;;;3.15;1.17;;;18.30;92.30;;;;;;4994335;28;20536;-44
2022/06/06 12:21:37;;;;;;;5.80;0.88;;;18.30;92.00;;;;;;4991149;28;20038;-42
2022/06/06 12:24:33;;;;;;;1.95;0.85;;;18.30;92.80;;;;;;4987387;28;20038;-43
2022/06/06 12:27:07;;;;;;;10.20;1.13;;;18.30;91.00;;;;;;4985812;28;20456;-42
2022/06/06 12:29:55;;;;;;;3.15;1.20;;;18.30;92.70;;;;;;4987614;28;21896;-43
2022/06/06 12:32:42;;;;;;;3.38;1.20;;;18.20;93.50;;;;;;4987194;28;20515;-42
2022/06/06 12:35:10;;;;;;;2.83;1.30;;;18.20;93.80;;;;;;4988878;28;20054;-41
2022/06/06 12:37:48;;;;;;;2.30;1.10;;;18.10;94.00;;;;;;4986977;28;20045;-44
2022/06/06 12:40:36;;;;;;;5.60;1.10;;;18.00;94.00;;;;;;4986633;28;20090;-44
2022/06/06 12:43:17;;;;;;;3.05;0.90;;;17.90;95.10;;;;;;4985980;28;20045;-42
2022/06/06 12:46:01;;;;;;;3.28;1.10;;;17.80;94.00;;;;;;4990854;28;20046;-46
2022/06/06 12:48:30;;;;;;;2.25;0.80;;;17.80;95.50;;;;;;4981317;28;20041;-48
2022/06/06 12:51:36;;;;;;;3.13;1.15;;;17.70;95.80;;;;;;4989563;28;20038;-48
2022/06/06 12:55:17;;;;;;;1.00;0.60;;;17.70;95.90;;;;;;4988137;28;20434;-43
2022/06/06 12:57:47;;;;;;;1.00;0.70;;;17.50;95.80;;;;;;4992320;28;20053;-43
2022/06/06 13:00:14;;;;;;;2.45;0.60;;;17.40;96.70;;;;;;4969685;28;20059;-44
2022/06/06 13:03:02;;;;;;;1.70;1.40;;;17.50;97.20;;;;;;4987356;28;20053;-43
2022/06/06 13:05:41;;;;;;;3.00;1.38;;;17.50;97.20;;;;;;4992868;28;20498;-43
2022/06/06 13:08:07;;;;;;;4.07;1.35;;;17.40;97.60;;;;;;5008146;28;20144;-46
2022/06/06 13:10:52;;;;;;;3.38;1.70;;;17.30;97.80;;;;;;4982560;28;20046;-42
2022/06/06 13:13:48;;;;;;;4.07;1.50;;;17.20;99.80;;;;;;4979047;28;20100;-45
2022/06/06 13:16:54;;;;;;;3.38;1.83;;;17.00;99.90;;;;;;4991662;28;20050;-43
2022/06/06 13:19:59;;;;;;;3.15;1.80;;;16.70;99.90;;;;;;4985937;28;20054;-44
2022/06/06 13:22:39;;;;;;;5.05;2.03;;;16.40;99.90;;;;;;4989781;28;20054;-45
2022/06/06 13:25:48;;;;;;;3.33;1.98;;;16.10;99.90;;;;;;4991417;28;20042;-48
2022/06/06 13:28:26;;;;;;;3.05;1.63;;;16.00;99.90;;;;;;4967768;28;20054;-41
2022/06/06 13:30:55;;;;;;;4.25;1.88;;;15.90;99.90;;;;;;4991141;28;20043;-48
2022/06/06 13:33:23;;;;;;;3.92;1.70;;;15.80;99.90;;;;;;4996474;28;20034;-46
2022/06/06 13:36:14;;;;;;;2.33;1.40;;;15.70;99.90;;;;;;4985235;28;20058;-40
2022/06/06 13:39:13;;;;;;;2.47;1.20;;;15.60;99.90;;;;;;4990707;28;20043;-44
2022/06/06 13:42:04;;;;;;;3.05;1.17;;;15.50;99.90;;;;;;4986160;28;20062;-46
2022/06/06 13:44:52;;;;;;;2.45;1.00;;;15.50;99.90;;;;;;4991090;28;20061;-41
2022/06/06 13:47:51;;;;;;;3.58;1.58;;;15.60;99.90;;;;;;4993085;28;20527;-42
2022/06/06 13:50:23;;;;;;;5.05;1.83;;;15.70;99.90;;;;;;5006195;28;20072;-44
2022/06/06 13:53:10;;;;;;;3.22;1.35;;;15.70;99.90;;;;;;4989600;28;20542;-43
2022/06/06 13:55:39;;;;;;;2.88;1.45;;;15.70;99.90;;;;;;4987849;28;20046;-43
2022/06/06 13:58:11;;;;;;;2.58;1.75;;;15.60;99.90;;;;;;4993422;28;20046;-45
2022/06/06 14:01:10;;;;;;;2.72;1.45;;;15.60;99.90;;;;;;4992384;28;20049;-45
2022/06/06 14:03:55;;;;;;;4.32;1.90;;;15.60;99.90;;;;;;4992327;28;20472;-44
2022/06/06 14:06:43;;;;;;;3.22;1.75;;;15.50;99.90;;;;;;4990203;28;20043;-42
2022/06/06 14:09:08;;;;;;;4.78;2.35;;;15.50;99.90;;;;;;4987785;28;20045;-42
2022/06/06 14:11:49;;;;;;;4.53;2.30;;;15.40;99.90;;;;;;4990414;28;20038;-41
2022/06/06 14:14:21;;;;;;;3.63;2.05;;;15.40;99.90;;;;;;4990567;28;20554;-43